Time;durP1;ratioP1;P1;durP2;ratioP2;P2;SDS_P1;SDS_P2;PMS_P1;PMS_P2;Temp;Humidity;BMP_temperature;BMP_pressure;BME280_temperature;BME280_humidity;BME280_pressure;Samples;Min_cycle;Max_cycle;Signal;HPM_P1;HPM_P2
2023/03/19 00:01:40;;;;;;;;;;;10.30;99.90;;;;;;5090311;28;20070;-76
2023/03/19 00:04:06;;;;;;;;;;;10.30;99.90;;;;;;5094373;28;19931;-76
2023/03/19 00:06:32;;;;;;;;;;;10.30;99.90;;;;;;5088442;28;19924;-77
2023/03/19 00:08:58;;;;;;;;;;;10.30;99.90;;;;;;5093438;28;20293;-77
2023/03/19 00:11:23;;;;;;;;;;;10.30;99.90;;;;;;5094411;28;19924;-75
2023/03/19 00:13:49;;;;;;;;;;;10.30;99.90;;;;;;5095807;28;19924;-77
2023/03/19 00:16:15;;;;;;;;;;;10.30;99.90;;;;;;5089116;28;19924;-77
2023/03/19 00:18:40;;;;;;;;;;;10.30;99.90;;;;;;5094883;28;19982;-77
2023/03/19 00:21:06;;;;;;;;;;;10.30;99.90;;;;;;5089004;28;19930;-77
2023/03/19 00:23:32;;;;;;;;;;;10.30;99.90;;;;;;5094331;27;19924;-76
2023/03/19 00:25:57;;;;;;;;;;;10.30;99.90;;;;;;5091302;28;19924;-77
2023/03/19 00:28:23;;;;;;;;;;;10.30;99.90;;;;;;5092869;28;20378;-77
2023/03/19 00:30:48;;;;;;;;;;;10.30;99.90;;;;;;5067549;28;19924;-77
2023/03/19 00:33:14;;;;;;;;;;;10.30;99.90;;;;;;5075192;28;19930;-77
2023/03/19 00:35:40;;;;;;;;;;;10.20;99.90;;;;;;5090398;28;19924;-77
2023/03/19 00:38:05;;;;;;;;;;;10.20;99.90;;;;;;5101962;28;20289;-77
2023/03/19 00:40:31;;;;;;;;;;;10.20;99.90;;;;;;5093426;28;20014;-77
2023/03/19 00:42:57;;;;;;;;;;;10.20;99.90;;;;;;5103653;28;19988;-77
2023/03/19 00:45:22;;;;;;;;;;;10.20;99.90;;;;;;5084066;28;19928;-78
2023/03/19 00:47:48;;;;;;;;;;;10.20;99.90;;;;;;5095120;28;19927;-77
2023/03/19 00:50:13;;;;;;;;;;;10.20;99.90;;;;;;5101962;28;19931;-77
2023/03/19 00:52:39;;;;;;;;;;;10.20;99.90;;;;;;5090399;28;20360;-76
2023/03/19 00:55:05;;;;;;;;;;;10.20;99.90;;;;;;5081019;28;19928;-77
2023/03/19 00:57:31;;;;;;;;;;;10.20;99.90;;;;;;5098939;28;19924;-77
2023/03/19 00:59:56;;;;;;;;;;;10.20;99.90;;;;;;5090937;28;19928;-75
2023/03/19 01:02:22;;;;;;;;;;;10.20;99.90;;;;;;5086907;28;20004;-76
2023/03/19 01:04:48;;;;;;;;;;;10.20;99.90;;;;;;5098852;28;20332;-76
2023/03/19 01:07:13;;;;;;;;;;;10.20;99.90;;;;;;5095276;28;19924;-76
2023/03/19 01:09:39;;;;;;;;;;;10.10;99.90;;;;;;5085539;28;19932;-76
2023/03/19 01:12:06;;;;;;;;;;;10.10;99.90;;;;;;5104032;28;19924;-76
2023/03/19 01:14:31;;;;;;;;;;;10.10;99.90;;;;;;5102136;28;19975;-76
2023/03/19 01:16:57;;;;;;;;;;;10.10;99.90;;;;;;5085674;28;19990;-76
2023/03/19 01:19:22;;;;;;;;;;;10.10;99.90;;;;;;5103769;28;19939;-76
2023/03/19 01:21:48;;;;;;;;;;;10.10;99.90;;;;;;5103213;28;20018;-76
2023/03/19 01:24:15;;;;;;;;;;;10.10;99.90;;;;;;5095958;28;19927;-76
2023/03/19 01:26:40;;;;;;;;;;;10.10;99.90;;;;;;5092120;28;19924;-76
2023/03/19 01:29:07;;;;;;;;;;;10.10;99.90;;;;;;5091599;28;19924;-76
2023/03/19 01:31:33;;;;;;;;;;;10.10;99.90;;;;;;5085944;28;20069;-76
2023/03/19 01:33:58;;;;;;;;;;;10.10;99.90;;;;;;5073659;28;19935;-77
2023/03/19 01:36:24;;;;;;;;;;;10.10;99.90;;;;;;5085439;28;19924;-76
2023/03/19 01:38:50;;;;;;;;;;;10.10;99.90;;;;;;5091574;28;19931;-76
2023/03/19 01:41:16;;;;;;;;;;;10.10;99.90;;;;;;5091561;28;19950;-76
2023/03/19 01:43:41;;;;;;;;;;;10.10;99.90;;;;;;5091810;28;19924;-76
2023/03/19 01:46:12;;;;;;;;;;;10.10;99.90;;;;;;5073192;28;20476;-77
2023/03/19 01:48:43;;;;;;;;;;;10.10;99.90;;;;;;5092294;28;19951;-77
2023/03/19 01:51:10;;;;;;;;;;;10.10;99.90;;;;;;5091982;28;19935;-77
2023/03/19 01:53:38;;;;;;;;;;;10.20;99.90;;;;;;5091762;28;20342;-77
2023/03/19 01:56:10;;;;;;;;;;;10.10;99.90;;;;;;5088725;28;19948;-77
2023/03/19 01:58:36;;;;;;;;;;;10.10;99.90;;;;;;5087147;28;19928;-77
2023/03/19 02:01:02;;;;;;;;;;;10.10;99.90;;;;;;5109671;27;19924;-77
2023/03/19 02:03:27;;;;;;;;;;;10.20;99.90;;;;;;5091253;28;19976;-77
2023/03/19 02:05:54;;;;;;;;;;;10.20;99.90;;;;;;5089612;28;19931;-77
2023/03/19 02:08:21;;;;;;;;;;;10.20;99.90;;;;;;5089184;28;20332;-77
2023/03/19 02:10:48;;;;;;;;;;;10.10;99.90;;;;;;5090301;28;19970;-77
2023/03/19 02:13:13;;;;;;;;;;;10.20;99.90;;;;;;5090502;28;20351;-77
2023/03/19 02:15:39;;;;;;;;;;;10.20;99.90;;;;;;5090286;28;19928;-77
2023/03/19 02:18:05;;;;;;;;;;;10.20;99.90;;;;;;5088775;28;19939;-77
2023/03/19 02:20:58;;;;;;;;;;;10.20;99.90;;;;;;5088634;28;19932;-77
2023/03/19 02:23:50;;;;;;;;;;;10.20;99.90;;;;;;5047725;28;20011;-77
2023/03/19 02:26:20;;;;;;;;;;;10.30;99.90;;;;;;5051279;28;19928;-77
2023/03/19 02:28:46;;;;;;;;;;;10.30;99.90;;;;;;5085929;28;20408;-77
2023/03/19 02:31:12;;;;;;;;;;;10.30;99.90;;;;;;5089976;28;19925;-77
2023/03/19 02:33:38;;;;;;;;;;;10.30;99.90;;;;;;5089345;28;19931;-77
2023/03/19 02:36:05;;;;;;;;;;;10.30;99.90;;;;;;5083340;28;19928;-77
2023/03/19 02:38:32;;;;;;;;;;;10.30;99.90;;;;;;5089434;28;19924;-77
2023/03/19 02:41:03;;;;;;;;;;;10.30;99.90;;;;;;5082141;28;20021;-77
2023/03/19 02:43:29;;;;;;;;;;;10.30;99.90;;;;;;5088895;28;19935;-77
2023/03/19 02:45:55;;;;;;;;;;;10.20;99.90;;;;;;5090721;28;19924;-77
2023/03/19 02:48:20;;;;;;;;;;;10.20;99.90;;;;;;5072450;28;19928;-76
2023/03/19 02:50:46;;;;;;;;;;;10.20;99.90;;;;;;5090729;28;19931;-77
2023/03/19 02:53:11;;;;;;;;;;;10.20;99.90;;;;;;5090511;28;19924;-77
2023/03/19 02:55:37;;;;;;;;;;;10.20;99.90;;;;;;5090632;28;20424;-76
2023/03/19 02:58:02;;;;;;;;;;;10.20;99.90;;;;;;5079240;28;19928;-77
2023/03/19 03:00:28;;;;;;;;;;;10.10;99.90;;;;;;5088664;28;19924;-77
2023/03/19 03:02:55;;;;;;;;;;;10.10;99.90;;;;;;5088422;28;19924;-77
2023/03/19 03:05:21;;;;;;;;;;;10.10;99.90;;;;;;5089374;28;20015;-76
2023/03/19 03:07:46;;;;;;;;;;;10.10;99.90;;;;;;5089155;28;20115;-77
2023/03/19 03:10:12;;;;;;;;;;;10.10;99.90;;;;;;5072895;28;19971;-76
2023/03/19 03:12:37;;;;;;;;;;;10.10;99.90;;;;;;5120586;27;19932;-77
2023/03/19 03:15:04;;;;;;;;;;;10.10;99.90;;;;;;5071890;28;19932;-77
2023/03/19 03:17:30;;;;;;;;;;;10.10;99.90;;;;;;5083108;28;19931;-77
2023/03/19 03:19:55;;;;;;;;;;;10.10;99.90;;;;;;5070494;28;20318;-77
2023/03/19 03:22:21;;;;;;;;;;;10.00;99.90;;;;;;5090697;28;19963;-77
2023/03/19 03:24:46;;;;;;;;;;;10.00;99.90;;;;;;5088064;28;20378;-76
2023/03/19 03:27:12;;;;;;;;;;;10.10;99.90;;;;;;5078802;28;19924;-77
2023/03/19 03:29:37;;;;;;;;;;;10.00;99.90;;;;;;5089484;28;20003;-76
2023/03/19 03:32:03;;;;;;;;;;;10.10;99.90;;;;;;5089739;28;20026;-77
2023/03/19 03:34:28;;;;;;;;;;;10.10;99.90;;;;;;5090464;28;19927;-77
2023/03/19 03:36:54;;;;;;;;;;;10.10;99.90;;;;;;5090668;28;20251;-77
2023/03/19 03:39:20;;;;;;;;;;;10.00;99.90;;;;;;5089265;28;19931;-77
2023/03/19 03:41:45;;;;;;;;;;;10.00;99.90;;;;;;5090139;28;19928;-77
2023/03/19 03:44:11;;;;;;;;;;;10.10;99.90;;;;;;5077595;28;19947;-77
2023/03/19 03:46:36;;;;;;;;;;;10.00;99.90;;;;;;5083977;28;20738;-77
2023/03/19 03:49:02;;;;;;;;;;;10.10;99.90;;;;;;5082783;28;20289;-77
2023/03/19 03:51:27;;;;;;;;;;;10.10;99.90;;;;;;5088232;28;20045;-77
2023/03/19 03:53:53;;;;;;;;;;;10.10;99.90;;;;;;5088939;28;20448;-77
2023/03/19 03:56:18;;;;;;;;;;;10.10;99.90;;;;;;5089903;28;20301;-76
2023/03/19 03:58:44;;;;;;;;;;;10.10;99.90;;;;;;5089331;28;19932;-77
2023/03/19 04:01:13;;;;;;;;;;;10.10;99.90;;;;;;5106162;28;19924;-77
2023/03/19 04:03:40;;;;;;;;;;;10.10;99.90;;;;;;5090036;28;19979;-77
2023/03/19 04:06:05;;;;;;;;;;;10.00;99.90;;;;;;5089983;28;19935;-77
2023/03/19 04:08:31;;;;;;;;;;;10.00;99.90;;;;;;5090240;28;20309;-77
2023/03/19 04:10:57;;;;;;;;;;;10.00;99.90;;;;;;5090860;28;19924;-77
2023/03/19 04:13:22;;;;;;;;;;;10.00;99.90;;;;;;5079503;28;19925;-77
2023/03/19 04:15:48;;;;;;;;;;;10.00;99.90;;;;;;5069408;28;19924;-77
2023/03/19 04:18:13;;;;;;;;;;;10.00;99.90;;;;;;5065739;28;19931;-77
2023/03/19 04:20:40;;;;;;;;;;;9.90;99.90;;;;;;5089929;28;19935;-77
2023/03/19 04:23:05;;;;;;;;;;;9.90;99.90;;;;;;5082063;28;20015;-77
2023/03/19 04:25:31;;;;;;;;;;;9.90;99.90;;;;;;5072752;28;20007;-76
2023/03/19 04:27:57;;;;;;;;;;;9.90;99.90;;;;;;5082894;28;19928;-76
2023/03/19 04:30:23;;;;;;;;;;;9.90;99.90;;;;;;5074891;28;20413;-76
2023/03/19 04:32:48;;;;;;;;;;;9.90;99.90;;;;;;5091250;28;19924;-76
2023/03/19 04:35:14;;;;;;;;;;;9.90;99.90;;;;;;5092214;28;19931;-76
2023/03/19 04:37:40;;;;;;;;;;;9.80;99.90;;;;;;5087968;28;20381;-76
2023/03/19 04:40:06;;;;;;;;;;;9.90;99.90;;;;;;5087219;28;19931;-76
2023/03/19 04:42:32;;;;;;;;;;;9.90;99.90;;;;;;5088589;28;19924;-76
2023/03/19 04:44:57;;;;;;;;;;;9.90;99.90;;;;;;5090599;28;19924;-76
2023/03/19 04:47:23;;;;;;;;;;;9.90;99.90;;;;;;5079940;28;20317;-76
2023/03/19 04:49:48;;;;;;;;;;;9.90;99.90;;;;;;5085562;28;19928;-76
2023/03/19 04:52:14;;;;;;;;;;;9.90;99.90;;;;;;5091303;28;19928;-77
2023/03/19 04:54:39;;;;;;;;;;;9.90;99.90;;;;;;5091415;28;19928;-76
2023/03/19 04:57:05;;;;;;;;;;;9.90;99.90;;;;;;5091721;28;20430;-76
2023/03/19 04:59:30;;;;;;;;;;;9.90;99.90;;;;;;5074420;28;19970;-76
2023/03/19 05:01:56;;;;;;;;;;;9.90;99.90;;;;;;5077116;28;19927;-76
2023/03/19 05:04:22;;;;;;;;;;;9.90;99.90;;;;;;5095416;28;19923;-77
2023/03/19 05:06:49;;;;;;;;;;;9.90;99.90;;;;;;5093594;28;19992;-77
2023/03/19 05:09:14;;;;;;;;;;;9.90;99.90;;;;;;5093564;28;19931;-77
2023/03/19 05:11:40;;;;;;;;;;;10.00;99.90;;;;;;5093470;28;19924;-76
2023/03/19 05:14:06;;;;;;;;;;;10.00;99.90;;;;;;5093530;28;19924;-76
2023/03/19 05:16:31;;;;;;;;;;;10.00;99.90;;;;;;5085236;28;20310;-77
2023/03/19 05:18:57;;;;;;;;;;;10.00;99.90;;;;;;5120219;27;19932;-76
2023/03/19 05:21:23;;;;;;;;;;;9.90;99.90;;;;;;5093274;28;20016;-77
2023/03/19 05:23:51;;;;;;;;;;;10.00;99.90;;;;;;5090121;28;19934;-77
2023/03/19 05:26:17;;;;;;;;;;;10.00;99.90;;;;;;5081892;28;19924;-77
2023/03/19 05:28:43;;;;;;;;;;;10.00;99.90;;;;;;5089701;28;19931;-77
2023/03/19 05:31:08;;;;;;;;;;;10.00;99.90;;;;;;5092403;28;19928;-77
2023/03/19 05:33:34;;;;;;;;;;;10.00;99.90;;;;;;5080491;28;20308;-77
2023/03/19 05:35:59;;;;;;;;;;;10.00;99.90;;;;;;5091872;28;19924;-77
2023/03/19 05:38:25;;;;;;;;;;;10.00;99.90;;;;;;5091801;28;20409;-77
2023/03/19 05:40:51;;;;;;;;;;;10.00;99.90;;;;;;5082219;28;19932;-77
2023/03/19 05:43:16;;;;;;;;;;;10.00;99.90;;;;;;5085060;28;19925;-77
2023/03/19 05:45:42;;;;;;;;;;;10.00;99.90;;;;;;5084802;28;19924;-77
2023/03/19 05:48:07;;;;;;;;;;;9.90;99.90;;;;;;5092977;28;20300;-77
2023/03/19 05:50:33;;;;;;;;;;;9.90;99.90;;;;;;5091896;28;19931;-77
2023/03/19 05:52:59;;;;;;;;;;;9.90;99.90;;;;;;5092027;28;19934;-77
2023/03/19 05:55:24;;;;;;;;;;;9.80;99.90;;;;;;5091562;28;19928;-77
2023/03/19 05:57:50;;;;;;;;;;;9.70;99.90;;;;;;5092268;28;20366;-77
2023/03/19 06:00:16;;;;;;;;;;;9.60;99.90;;;;;;5091063;28;19978;-77
2023/03/19 06:02:41;;;;;;;;;;;9.60;99.90;;;;;;5091696;28;19931;-77
2023/03/19 06:05:07;;;;;;;;;;;9.60;99.90;;;;;;5091469;28;19924;-77
2023/03/19 06:07:33;;;;;;;;;;;9.50;99.90;;;;;;5092832;28;19930;-77
2023/03/19 06:09:58;;;;;;;;;;;9.50;99.90;;;;;;5090849;28;20003;-77
2023/03/19 06:12:24;;;;;;;;;;;9.40;99.90;;;;;;5079045;28;20022;-77
2023/03/19 06:14:50;;;;;;;;;;;9.40;99.90;;;;;;5091001;28;19924;-77
2023/03/19 06:17:16;;;;;;;;;;;9.30;99.90;;;;;;5090569;28;20418;-77
2023/03/19 06:19:41;;;;;;;;;;;9.30;99.90;;;;;;5079673;28;19925;-77
2023/03/19 06:22:07;;;;;;;;;;;9.30;99.90;;;;;;5088706;28;20298;-77
2023/03/19 06:24:33;;;;;;;;;;;9.30;99.90;;;;;;5073530;28;20370;-77
2023/03/19 06:26:58;;;;;;;;;;;9.30;99.90;;;;;;5089519;28;19989;-77
2023/03/19 06:29:24;;;;;;;;;;;9.30;99.90;;;;;;5082049;28;20446;-77
2023/03/19 06:31:51;;;;;;;;;;;9.30;99.90;;;;;;5090500;28;21003;-77
2023/03/19 06:34:17;;;;;;;;;;;9.40;99.90;;;;;;5072846;28;19931;-77
2023/03/19 06:36:42;;;;;;;;;;;9.40;99.90;;;;;;5071807;28;19925;-77
2023/03/19 06:39:08;;;;;;;;;;;9.40;99.90;;;;;;5089247;28;19932;-78
2023/03/19 06:41:33;;;;;;;;;;;9.40;99.90;;;;;;5078718;28;19924;-78
2023/03/19 06:43:59;;;;;;;;;;;9.50;99.90;;;;;;5089524;28;20293;-77
2023/03/19 06:46:24;;;;;;;;;;;9.50;99.90;;;;;;5090725;28;20386;-78
2023/03/19 06:48:50;;;;;;;;;;;9.40;99.90;;;;;;5091282;28;19924;-77
2023/03/19 06:51:16;;;;;;;;;;;9.40;99.90;;;;;;5089802;28;19924;-77
2023/03/19 06:53:41;;;;;;;;;;;9.40;99.90;;;;;;5090113;28;20305;-77
2023/03/19 06:56:08;;;;;;;;;;;9.40;99.90;;;;;;5079195;28;19935;-77
2023/03/19 06:58:34;;;;;;;;;;;9.40;99.90;;;;;;5090559;28;19930;-77
2023/03/19 07:01:00;;;;;;;;;;;9.40;99.90;;;;;;5089290;28;19931;-77
2023/03/19 07:03:25;;;;;;;;;;;9.40;99.90;;;;;;5091263;28;19928;-77
2023/03/19 07:05:51;;;;;;;;;;;9.40;99.90;;;;;;5080517;28;19943;-78
2023/03/19 07:08:16;;;;;;;;;;;9.40;99.90;;;;;;5083736;28;19932;-75
2023/03/19 07:10:42;;;;;;;;;;;9.40;99.90;;;;;;5075830;28;19931;-76
2023/03/19 07:13:07;;;;;;;;;;;9.50;99.90;;;;;;5097948;28;19987;-76
2023/03/19 07:15:33;;;;;;;;;;;9.50;99.90;;;;;;5087662;28;19931;-76
2023/03/19 07:17:58;;;;;;;;;;;9.50;99.90;;;;;;5087237;28;20001;-76
2023/03/19 07:20:24;;;;;;;;;;;9.60;99.90;;;;;;5084031;28;19938;-77
2023/03/19 07:22:50;;;;;;;;;;;9.60;99.90;;;;;;5088413;28;19936;-77
2023/03/19 07:25:15;;;;;;;;;;;9.60;99.90;;;;;;5087113;28;19924;-77
2023/03/19 07:27:41;;;;;;;;;;;9.60;99.90;;;;;;5087286;28;19939;-77
2023/03/19 07:30:07;;;;;;;;;;;9.70;99.90;;;;;;5083665;28;19924;-77
2023/03/19 07:32:32;;;;;;;;;;;9.70;99.90;;;;;;5070610;28;20374;-77
2023/03/19 07:34:58;;;;;;;;;;;9.80;99.90;;;;;;5092983;28;19946;-77
2023/03/19 07:37:23;;;;;;;;;;;9.80;99.90;;;;;;5092556;28;19924;-77
2023/03/19 07:39:49;;;;;;;;;;;9.90;99.90;;;;;;5098307;28;20429;-77
2023/03/19 07:42:15;;;;;;;;;;;9.90;99.90;;;;;;5087805;28;19932;-77
2023/03/19 07:44:40;;;;;;;;;;;10.00;99.90;;;;;;5086895;28;19930;-77
2023/03/19 07:47:06;;;;;;;;;;;10.00;99.90;;;;;;5091972;28;19924;-77
2023/03/19 07:49:31;;;;;;;;;;;10.10;99.90;;;;;;5087936;28;19924;-77
2023/03/19 07:51:57;;;;;;;;;;;10.10;99.90;;;;;;5088293;28;20381;-77
2023/03/19 07:54:23;;;;;;;;;;;10.20;99.90;;;;;;5083908;28;19977;-77
2023/03/19 07:56:48;;;;;;;;;;;10.30;99.90;;;;;;5088880;28;20015;-77
2023/03/19 07:59:14;;;;;;;;;;;10.50;99.90;;;;;;5087130;28;20398;-77
2023/03/19 08:01:40;;;;;;;;;;;10.50;99.90;;;;;;5087084;28;19924;-77
2023/03/19 08:04:05;;;;;;;;;;;10.50;99.90;;;;;;5095115;28;20000;-77
2023/03/19 08:06:31;;;;;;;;;;;10.50;99.90;;;;;;5088108;28;19928;-77
2023/03/19 08:08:57;;;;;;;;;;;10.50;99.90;;;;;;5087470;28;19980;-77
2023/03/19 08:11:22;;;;;;;;;;;10.50;99.90;;;;;;5088893;28;19967;-77
2023/03/19 08:13:48;;;;;;;;;;;10.50;99.90;;;;;;5069383;28;19933;-77
2023/03/19 08:16:13;;;;;;;;;;;10.50;99.90;;;;;;5088172;28;20287;-77
2023/03/19 08:18:39;;;;;;;;;;;10.60;99.90;;;;;;5087983;28;19932;-77
2023/03/19 08:21:05;;;;;;;;;;;10.60;99.90;;;;;;5098185;28;19949;-77
2023/03/19 08:23:30;;;;;;;;;;;10.70;99.90;;;;;;5087650;28;20325;-77
2023/03/19 08:25:55;;;;;;;;;;;10.80;99.90;;;;;;5078242;28;19935;-77
2023/03/19 08:28:21;;;;;;;;;;;10.80;99.90;;;;;;5095171;28;19931;-77
2023/03/19 08:30:47;;;;;;;;;;;10.90;99.90;;;;;;5089875;28;19931;-77
2023/03/19 08:33:13;;;;;;;;;;;10.90;99.90;;;;;;5089772;28;19925;-77
2023/03/19 08:35:39;;;;;;;;;;;11.00;99.90;;;;;;5091503;28;19928;-77
2023/03/19 08:38:04;;;;;;;;;;;11.10;99.90;;;;;;5090917;28;19976;-77
2023/03/19 08:40:30;;;;;;;;;;;11.20;99.90;;;;;;5089520;28;20013;-77
2023/03/19 08:42:55;;;;;;;;;;;11.20;99.90;;;;;;5091733;28;20058;-77
2023/03/19 08:45:21;;;;;;;;;;;11.20;99.90;;;;;;5089712;28;20005;-77
2023/03/19 08:47:47;;;;;;;;;;;11.30;99.90;;;;;;5091342;28;19947;-77
2023/03/19 08:50:13;;;;;;;;;;;11.40;99.90;;;;;;5089050;28;19931;-77
2023/03/19 08:52:39;;;;;;;;;;;11.50;99.90;;;;;;5095890;28;20326;-77
2023/03/19 08:55:04;;;;;;;;;;;11.50;99.90;;;;;;5100218;28;19932;-78
2023/03/19 08:57:31;;;;;;;;;;;11.60;99.90;;;;;;5088579;28;20003;-77
2023/03/19 08:59:56;;;;;;;;;;;11.70;99.90;;;;;;5090832;28;19958;-78
2023/03/19 09:02:22;;;;;;;;;;;11.80;99.90;;;;;;5093558;28;19994;-77
2023/03/19 09:04:47;;;;;;;;;;;11.80;99.90;;;;;;5090527;28;20416;-77
2023/03/19 09:07:14;;;;;;;;;;;11.80;99.90;;;;;;5094442;28;19924;-77
2023/03/19 09:09:40;;;;;;;;;;;11.90;99.90;;;;;;5089730;28;19928;-77
2023/03/19 09:12:06;;;;;;;;;;;11.90;99.90;;;;;;5090362;28;19928;-77
2023/03/19 09:14:33;;;;;;;;;;;12.00;99.90;;;;;;5073211;28;19924;-77
2023/03/19 09:16:58;;;;;;;;;;;12.20;99.90;;;;;;5099414;28;19949;-77
2023/03/19 09:19:24;;;;;;;;;;;12.30;99.90;;;;;;5089523;28;20413;-77
2023/03/19 09:21:50;;;;;;;;;;;12.50;99.90;;;;;;5089587;28;19931;-77
2023/03/19 09:24:16;;;;;;;;;;;12.50;99.90;;;;;;5087201;28;20294;-78
2023/03/19 09:26:42;;;;;;;;;;;12.50;99.90;;;;;;5088908;28;20297;-77
2023/03/19 09:29:07;;;;;;;;;;;12.30;99.90;;;;;;5093545;28;20386;-77
2023/03/19 09:31:33;;;;;;;;;;;12.30;99.90;;;;;;5086800;28;19924;-74
2023/03/19 09:33:59;;;;;;;;;;;12.20;99.90;;;;;;5092343;28;19934;-74
2023/03/19 09:36:25;;;;;;;;;;;12.10;99.90;;;;;;5092520;28;19934;-74
2023/03/19 09:38:50;;;;;;;;;;;12.20;99.90;;;;;;5094198;28;20385;-75
2023/03/19 09:41:16;;;;;;;;;;;12.40;99.90;;;;;;5106403;28;19931;-75
2023/03/19 09:43:55;;;;;;;;;;;12.80;99.90;;;;;;5093936;28;19934;-75
2023/03/19 09:46:23;;;;;;;;;;;13.40;99.90;;;;;;5098356;28;19924;-75
2023/03/19 09:48:54;;;;;;;;;;;13.80;99.90;;;;;;5096780;28;19981;-75
2023/03/19 09:51:29;;;;;;;;;;;14.60;99.90;;;;;;5100636;28;19924;-75
2023/03/19 09:54:00;;;;;;;;;;;15.40;99.90;;;;;;5094993;28;19923;-76
2023/03/19 09:56:26;;;;;;;;;;;15.90;99.90;;;;;;5103333;28;19987;-76
2023/03/19 09:58:52;;;;;;;;;;;16.40;99.90;;;;;;5092432;28;19924;-75
2023/03/19 10:01:26;;;;;;;;;;;16.90;99.90;;;;;;5103845;28;19969;-76
2023/03/19 10:04:00;;;;;;;;;;;17.30;99.90;;;;;;5090088;28;19946;-76
2023/03/19 10:06:32;;;;;;;;;;;17.70;99.90;;;;;;5106645;28;19947;-74
2023/03/19 10:09:27;;;;;;;;;;;18.20;99.90;;;;;;5094911;28;20669;-75
2023/03/19 10:12:00;;;;;;;;;;;18.40;99.90;;;;;;5016261;28;19971;-75
2023/03/19 10:14:35;;;;;;;;;;;18.60;99.90;;;;;;5081479;28;20012;-75
2023/03/19 10:17:03;;;;;;;;;;;17.90;99.90;;;;;;5081344;28;19932;-74
2023/03/19 10:19:46;;;;;;;;;;;17.10;99.90;;;;;;5088363;28;19985;-74
2023/03/19 10:22:15;;;;;;;;;;;16.50;99.90;;;;;;5091428;28;20275;-74
2023/03/19 10:24:43;;;;;;;;;;;15.90;99.90;;;;;;5089156;28;19969;-74
2023/03/19 10:27:17;;;;;;;;;;;15.30;99.90;;;;;;5088197;28;20477;-74
2023/03/19 10:29:42;;;;;;;;;;;14.90;99.90;;;;;;5091317;28;19924;-74
2023/03/19 10:32:18;;;;;;;;;;;14.60;99.90;;;;;;5089563;28;19940;-74
2023/03/19 10:34:47;;;;;;;;;;;14.30;99.90;;;;;;5089842;28;19928;-74
2023/03/19 10:37:27;;;;;;;;;;;14.10;99.90;;;;;;5071224;28;20015;-75
2023/03/19 10:40:02;;;;;;;;;;;14.00;99.90;;;;;;5077832;28;19924;-75
2023/03/19 10:42:47;;;;;;;;;;;13.90;99.90;;;;;;5083466;28;19925;-74
2023/03/19 10:45:30;;;;;;;;;;;14.00;99.90;;;;;;5087017;28;19924;-75
2023/03/19 10:47:56;;;;;;;;;;;14.10;99.90;;;;;;5069685;28;19924;-75
2023/03/19 10:50:26;;;;;;;;;;;14.20;99.90;;;;;;5089568;28;20294;-76
2023/03/19 10:53:01;;;;;;;;;;;14.20;99.90;;;;;;5089000;28;19970;-76
2023/03/19 10:55:29;;;;;;;;;;;14.40;99.90;;;;;;5078188;28;19924;-76
2023/03/19 10:58:00;;;;;;;;;;;14.50;99.90;;;;;;5086378;28;19925;-75
2023/03/19 11:00:27;;;;;;;;;;;14.50;99.90;;;;;;5081293;28;19928;-75
2023/03/19 11:02:54;;;;;;;;;;;14.60;99.90;;;;;;5088079;28;19963;-75
2023/03/19 11:05:19;;;;;;;;;;;14.80;99.90;;;;;;5082335;28;20465;-75
2023/03/19 11:07:47;;;;;;;;;;;14.90;99.90;;;;;;5071813;28;20010;-75
2023/03/19 11:10:14;;;;;;;;;;;15.00;99.90;;;;;;5093234;28;19924;-76
2023/03/19 11:12:40;;;;;;;;;;;15.30;99.90;;;;;;5087297;28;19928;-75
2023/03/19 11:15:15;;;;;;;;;;;15.40;99.90;;;;;;5087096;28;20519;-75
2023/03/19 11:17:45;;;;;;;;;;;15.30;99.90;;;;;;5079552;28;19924;-75
2023/03/19 11:20:14;;;;;;;;;;;15.20;99.90;;;;;;5085689;28;19924;-75
2023/03/19 11:22:40;;;;;;;;;;;15.10;99.90;;;;;;5089848;28;20358;-75
2023/03/19 11:25:12;;;;;;;;;;;15.00;99.90;;;;;;5090266;28;19947;-75
2023/03/19 11:27:37;;;;;;;;;;;14.90;99.90;;;;;;5088853;28;19932;-75
2023/03/19 11:30:11;;;;;;;;;;;14.90;99.90;;;;;;5085307;28;19931;-75
2023/03/19 11:32:40;;;;;;;;;;;14.80;99.90;;;;;;5088827;28;20010;-75
2023/03/19 11:35:10;;;;;;;;;;;14.70;99.90;;;;;;5088209;28;20282;-75
2023/03/19 11:37:55;;;;;;;;;;;14.60;99.90;;;;;;5090184;28;19924;-75
2023/03/19 11:40:40;;;;;;;;;;;14.60;99.90;;;;;;5084575;28;20378;-75
2023/03/19 11:43:17;;;;;;;;;;;14.70;99.90;;;;;;5088050;28;19923;-75
2023/03/19 11:45:54;;;;;;;;;;;15.20;99.90;;;;;;5079471;28;20386;-75
2023/03/19 11:48:23;;;;;;;;;;;16.20;99.90;;;;;;5089251;28;19932;-75
2023/03/19 11:50:52;;;;;;;;;;;17.10;99.90;;;;;;5089870;28;19928;-75
2023/03/19 11:53:26;;;;;;;;;;;17.30;99.90;;;;;;5089262;28;19928;-75
2023/03/19 11:55:56;;;;;;;;;;;17.50;99.90;;;;;;5088574;28;20314;-75
2023/03/19 11:58:27;;;;;;;;;;;17.80;99.90;;;;;;5088503;28;19935;-75
2023/03/19 12:00:54;;;;;;;;;;;17.80;99.90;;;;;;5091397;28;19939;-75
2023/03/19 12:03:20;;;;;;;;;;;18.00;99.90;;;;;;5092493;28;19950;-75
2023/03/19 12:05:52;;;;;;;;;;;17.90;99.90;;;;;;5093327;28;20007;-75
2023/03/19 12:08:23;;;;;;;;;;;18.00;99.90;;;;;;5076140;28;19925;-75
2023/03/19 12:10:52;;;;;;;;;;;17.60;99.90;;;;;;5093785;28;19924;-75
2023/03/19 12:13:41;;;;;;;;;;;17.70;99.90;;;;;;5093888;28;19931;-75
2023/03/19 12:16:19;;;;;;;;;;;17.70;99.90;;;;;;5090748;28;20302;-75
2023/03/19 12:18:48;;;;;;;;;;;17.40;99.90;;;;;;5093285;28;19967;-75
2023/03/19 12:21:22;;;;;;;;;;;17.40;99.90;;;;;;5081673;28;19928;-75
2023/03/19 12:24:03;;;;;;;7.50;5.90;;;18.10;99.90;;;;;;5092299;28;19924;-75
2023/03/19 12:27:10;;;;;;;6.90;5.30;;;19.00;99.90;;;;;;5074302;28;20047;-75
2023/03/19 12:29:51;;;;;;;;;;;19.70;99.90;;;;;;5085714;28;20051;-75
2023/03/19 12:32:19;;;;;;;;;;;20.40;99.90;;;;;;5093887;28;19920;-75
2023/03/19 12:34:51;;;;;;;;;;;20.20;99.90;;;;;;5096791;28;20298;-75
2023/03/19 12:37:24;;;;;;;8.25;5.18;;;20.40;99.90;;;;;;5091574;28;19945;-75
2023/03/19 12:40:07;;;;;;;6.68;5.28;;;20.70;99.90;;;;;;5092072;28;20588;-75
2023/03/19 12:42:38;;;;;;;7.18;5.90;;;21.10;99.90;;;;;;5093054;28;20444;-76
2023/03/19 12:45:29;;;;;;;6.65;5.80;;;21.40;99.90;;;;;;5093020;28;20425;-76
2023/03/19 12:48:05;;;;;;;6.95;6.20;;;21.40;99.90;;;;;;5093857;28;20411;-75
2023/03/19 12:50:34;;;;;;;7.85;6.40;;;21.30;99.90;;;;;;5093165;28;20401;-75
2023/03/19 12:53:04;;;;;;;6.32;5.50;;;21.60;99.90;;;;;;5084116;28;20047;-76
2023/03/19 12:55:46;;;;;;;6.75;5.13;;;21.50;99.90;;;;;;5078313;28;20497;-76
2023/03/19 12:58:19;;;;;;;;;;;21.80;99.90;;;;;;5085307;28;20054;-76
2023/03/19 13:01:00;;;;;;;;;;;21.40;99.90;;;;;;5092334;28;19965;-75
2023/03/19 13:03:47;;;;;;;;;;;20.60;99.90;;;;;;5094937;28;19977;-76
2023/03/19 13:06:22;;;;;;;;;;;20.80;99.90;;;;;;5082179;28;19943;-76
2023/03/19 13:08:51;;;;;;;;;;;20.70;99.90;;;;;;5104064;28;19927;-76
2023/03/19 13:11:35;;;;;;;;;;;19.80;99.90;;;;;;5079785;28;19920;-76
2023/03/19 13:14:20;;;;;;;;;;;19.00;99.90;;;;;;5096618;28;19920;-76
2023/03/19 13:16:56;;;;;;;;;;;18.70;99.90;;;;;;5091746;28;19964;-75
2023/03/19 13:19:25;;;;;;;;;;;18.50;99.90;;;;;;5090771;28;20524;-75
2023/03/19 13:21:53;;;;;;;;;;;18.20;99.90;;;;;;5084014;28;20400;-75
2023/03/19 13:24:21;;;;;;;;;;;17.90;99.90;;;;;;5096381;28;19927;-75
2023/03/19 13:26:51;;;;;;;;;;;17.60;99.90;;;;;;5097369;28;20018;-75
2023/03/19 13:29:20;;;;;;;;;;;17.30;99.90;;;;;;5085841;28;19921;-75
2023/03/19 13:31:46;;;;;;;;;;;17.10;99.90;;;;;;5074411;28;20003;-75
2023/03/19 13:34:15;;;;;;;;;;;17.00;99.90;;;;;;5094430;28;19920;-75
2023/03/19 13:36:41;;;;;;;;;;;17.60;99.90;;;;;;5088504;28;19971;-75
2023/03/19 13:39:20;;;;;;;;;;;17.60;99.90;;;;;;5071107;28;19970;-75
2023/03/19 13:41:45;;;;;;;;;;;17.40;99.90;;;;;;5076591;28;19920;-75
2023/03/19 13:44:24;;;;;;;;;;;17.10;99.90;;;;;;5089976;28;20340;-75
2023/03/19 13:46:50;;;;;;;;;;;16.80;99.90;;;;;;5088804;28;19953;-80
2023/03/19 13:49:26;;;;;;;;;;;16.50;99.90;;;;;;5072091;28;19920;-75
2023/03/19 13:51:57;;;;;;;;;;;16.70;99.90;;;;;;5089656;28;19920;-76
2023/03/19 13:54:33;;;;;;;;;;;16.80;99.90;;;;;;5085161;28;19931;-75
2023/03/19 13:57:03;;;;;;;;;;;16.60;99.90;;;;;;5091369;28;19927;-75
2023/03/19 13:59:29;;;;;;;;;;;16.20;99.90;;;;;;5089143;28;19926;-75
2023/03/19 14:01:55;;;;;;;;;;;16.00;99.90;;;;;;5087012;28;20301;-75
2023/03/19 14:04:20;;;;;;;;;;;15.80;99.90;;;;;;5090589;28;19928;-75
2023/03/19 14:06:47;;;;;;;;;;;15.60;99.90;;;;;;5089948;28;19965;-75
2023/03/19 14:09:32;;;;;;;;;;;15.50;99.90;;;;;;5088056;28;19920;-75
2023/03/19 14:12:10;;;;;;;;;;;15.20;99.90;;;;;;5088225;28;19985;-75
2023/03/19 14:15:03;;;;;;;;;;;15.00;99.90;;;;;;5084662;28;19919;-74
2023/03/19 14:17:33;;;;;;;;;;;14.80;99.90;;;;;;5082716;28;19928;-75
2023/03/19 14:20:11;;;;;;;;;;;14.60;99.90;;;;;;5088801;28;20289;-75
2023/03/19 14:22:57;;;;;;;;;;;14.50;99.90;;;;;;5089236;28;20374;-75